sensor_id;sensor_type;location;lat;lon;timestamp;pressure;altitude;pressure_sealevel;temperature;humidity
73681;BME280;61979;53.536;8.082;2022-09-29T00:02:09;100106.19;;;8.06;81.31
73681;BME280;61979;53.536;8.082;2022-09-29T00:12:09;100100.47;;;7.91;83.14
73681;BME280;61979;53.536;8.082;2022-09-29T00:22:10;100092.78;;;7.97;82.41
73681;BME280;61979;53.536;8.082;2022-09-29T00:32:10;100090.31;;;7.91;83.80
73681;BME280;61979;53.536;8.082;2022-09-29T00:42:11;100097.88;;;7.95;82.16
73681;BME280;61979;53.536;8.082;2022-09-29T00:52:13;100089.56;;;7.84;82.83
73681;BME280;61979;53.536;8.082;2022-09-29T01:02:16;100093.16;;;7.71;83.19
73681;BME280;61979;53.536;8.082;2022-09-29T01:12:18;100092.53;;;7.54;83.15
73681;BME280;61979;53.536;8.082;2022-09-29T01:43:19;100104.50;;;7.40;81.85
73681;BME280;61979;53.536;8.082;2022-09-29T01:53:06;100099.53;;;7.33;81.82
73681;BME280;61979;53.536;8.082;2022-09-29T02:13:10;100110.66;;;7.18;82.81
73681;BME280;61979;53.536;8.082;2022-09-29T02:23:13;100100.81;;;6.94;82.82
73681;BME280;61979;53.536;8.082;2022-09-29T02:33:17;100100.72;;;7.03;82.56
73681;BME280;61979;53.536;8.082;2022-09-29T02:53:30;100117.81;;;6.80;84.12
73681;BME280;61979;53.536;8.082;2022-09-29T03:03:31;100116.00;;;6.90;83.26
73681;BME280;61979;53.536;8.082;2022-09-29T03:13:31;100112.69;;;6.83;83.25
73681;BME280;61979;53.536;8.082;2022-09-29T03:23:32;100106.00;;;6.79;83.27
73681;BME280;61979;53.536;8.082;2022-09-29T03:33:32;100113.56;;;6.81;83.11
73681;BME280;61979;53.536;8.082;2022-09-29T03:43:32;100114.59;;;6.63;84.75
73681;BME280;61979;53.536;8.082;2022-09-29T03:53:33;100115.22;;;6.83;83.61
73681;BME280;61979;53.536;8.082;2022-09-29T04:03:34;100120.41;;;6.71;83.67
73681;BME280;61979;53.536;8.082;2022-09-29T04:13:34;100124.47;;;6.90;84.08
73681;BME280;61979;53.536;8.082;2022-09-29T04:23:34;100131.38;;;6.75;86.90
73681;BME280;61979;53.536;8.082;2022-09-29T04:33:35;100134.63;;;6.87;85.44
73681;BME280;61979;53.536;8.082;2022-09-29T04:43:36;100151.50;;;6.88;85.18
73681;BME280;61979;53.536;8.082;2022-09-29T04:53:37;100162.53;;;6.83;85.93
73681;BME280;61979;53.536;8.082;2022-09-29T05:03:37;100165.88;;;6.86;84.46
73681;BME280;61979;53.536;8.082;2022-09-29T05:13:38;100172.50;;;7.01;84.28
73681;BME280;61979;53.536;8.082;2022-09-29T05:23:38;100187.66;;;7.05;83.87
73681;BME280;61979;53.536;8.082;2022-09-29T05:33:39;100180.09;;;6.99;84.13
73681;BME280;61979;53.536;8.082;2022-09-29T05:43:39;100181.03;;;6.88;86.55
73681;BME280;61979;53.536;8.082;2022-09-29T05:53:40;100186.88;;;6.97;86.06
73681;BME280;61979;53.536;8.082;2022-09-29T06:03:41;100191.28;;;6.76;87.66
73681;BME280;61979;53.536;8.082;2022-09-29T06:13:44;100199.38;;;7.14;86.46
73681;BME280;61979;53.536;8.082;2022-09-29T06:23:45;100203.38;;;7.40;85.72
73681;BME280;61979;53.536;8.082;2022-09-29T06:33:46;100216.78;;;7.51;85.43
73681;BME280;61979;53.536;8.082;2022-09-29T06:43:46;100222.59;;;7.61;86.46
73681;BME280;61979;53.536;8.082;2022-09-29T06:53:47;100226.56;;;7.86;85.92
73681;BME280;61979;53.536;8.082;2022-09-29T07:03:47;100229.84;;;7.92;86.80
73681;BME280;61979;53.536;8.082;2022-09-29T07:13:51;100226.00;;;8.32;86.08
73681;BME280;61979;53.536;8.082;2022-09-29T07:23:51;100236.09;;;8.35;85.95
73681;BME280;61979;53.536;8.082;2022-09-29T07:33:51;100244.41;;;8.48;87.25
73681;BME280;61979;53.536;8.082;2022-09-29T07:43:52;100244.44;;;9.01;86.21
73681;BME280;61979;53.536;8.082;2022-09-29T07:53:52;100258.38;;;9.30;85.84
73681;BME280;61979;53.536;8.082;2022-09-29T08:03:53;100267.91;;;9.66;85.69
73681;BME280;61979;53.536;8.082;2022-09-29T08:13:54;100278.38;;;9.96;84.85
73681;BME280;61979;53.536;8.082;2022-09-29T08:23:57;100287.44;;;10.53;84.75
73681;BME280;61979;53.536;8.082;2022-09-29T08:33:59;100293.13;;;10.64;84.10
73681;BME280;61979;53.536;8.082;2022-09-29T08:44:02;100311.00;;;11.01;86.03
73681;BME280;61979;53.536;8.082;2022-09-29T08:54:05;100315.28;;;11.00;84.49
73681;BME280;61979;53.536;8.082;2022-09-29T09:24:28;100326.63;;;12.23;82.17
73681;BME280;61979;53.536;8.082;2022-09-29T09:34:43;100328.22;;;12.57;82.93
73681;BME280;61979;53.536;8.082;2022-09-29T09:45:09;100315.78;;;13.03;82.56
73681;BME280;61979;53.536;8.082;2022-09-29T09:55:09;100324.91;;;13.63;80.23
73681;BME280;61979;53.536;8.082;2022-09-29T10:05:14;100327.91;;;13.76;78.83
73681;BME280;61979;53.536;8.082;2022-09-29T10:15:25;100339.56;;;13.84;80.48
73681;BME280;61979;53.536;8.082;2022-09-29T10:25:27;100348.19;;;14.06;79.41
73681;BME280;61979;53.536;8.082;2022-09-29T10:35:32;100362.75;;;13.80;80.26
73681;BME280;61979;53.536;8.082;2022-09-29T10:45:35;100360.66;;;14.17;79.85
73681;BME280;61979;53.536;8.082;2022-09-29T10:55:47;100365.25;;;13.83;78.08
73681;BME280;61979;53.536;8.082;2022-09-29T11:15:50;100371.03;;;14.38;78.41
73681;BME280;61979;53.536;8.082;2022-09-29T11:35:58;100384.53;;;14.89;76.04
73681;BME280;61979;53.536;8.082;2022-09-29T12:16:17;100405.38;;;15.69;72.40
73681;BME280;61979;53.536;8.082;2022-09-29T12:26:20;100415.19;;;15.60;73.63
73681;BME280;61979;53.536;8.082;2022-09-29T12:46:47;100424.44;;;14.75;73.94
73681;BME280;61979;53.536;8.082;2022-09-29T13:27:30;100440.06;;;14.67;77.37
73681;BME280;61979;53.536;8.082;2022-09-29T13:37:41;100432.50;;;14.87;76.77
73681;BME280;61979;53.536;8.082;2022-09-29T13:57:51;100427.91;;;15.18;74.96
73681;BME280;61979;53.536;8.082;2022-09-29T14:17:57;100431.91;;;15.70;75.51
73681;BME280;61979;53.536;8.082;2022-09-29T14:38:05;100438.22;;;15.83;74.24
73681;BME280;61979;53.536;8.082;2022-09-29T14:48:11;100451.03;;;15.84;74.05
73681;BME280;61979;53.536;8.082;2022-09-29T15:08:39;100469.78;;;15.43;77.81
73681;BME280;61979;53.536;8.082;2022-09-29T15:19:05;100475.25;;;15.34;78.36
73681;BME280;61979;53.536;8.082;2022-09-29T15:29:09;100469.94;;;15.16;75.64
73681;BME280;61979;53.536;8.082;2022-09-29T15:39:40;100477.81;;;15.34;75.63
73681;BME280;61979;53.536;8.082;2022-09-29T15:49:47;100487.72;;;15.45;75.86
73681;BME280;61979;53.536;8.082;2022-09-29T15:59:51;100491.59;;;15.32;76.99
73681;BME280;61979;53.536;8.082;2022-09-29T16:09:56;100510.75;;;15.46;77.41
73681;BME280;61979;53.536;8.082;2022-09-29T16:19:57;100519.47;;;15.42;77.56
73681;BME280;61979;53.536;8.082;2022-09-29T16:30:15;100524.47;;;15.45;77.80
73681;BME280;61979;53.536;8.082;2022-09-29T16:40:18;100533.72;;;15.26;77.68
73681;BME280;61979;53.536;8.082;2022-09-29T16:50:24;100540.91;;;14.94;77.99
73681;BME280;61979;53.536;8.082;2022-09-29T17:00:25;100545.41;;;14.63;79.14
73681;BME280;61979;53.536;8.082;2022-09-29T17:10:26;100563.22;;;14.41;80.01
73681;BME280;61979;53.536;8.082;2022-09-29T17:20:26;100576.03;;;14.41;80.53
73681;BME280;61979;53.536;8.082;2022-09-29T17:30:30;100582.69;;;14.47;79.96
73681;BME280;61979;53.536;8.082;2022-09-29T17:40:33;100592.31;;;14.40;80.58
73681;BME280;61979;53.536;8.082;2022-09-29T17:50:44;100595.00;;;14.37;80.57
73681;BME280;61979;53.536;8.082;2022-09-29T18:00:48;100606.63;;;14.21;81.28
73681;BME280;61979;53.536;8.082;2022-09-29T18:10:50;100607.81;;;14.08;81.17
73681;BME280;61979;53.536;8.082;2022-09-29T18:20:51;100617.84;;;13.59;83.22
73681;BME280;61979;53.536;8.082;2022-09-29T18:30:56;100625.81;;;13.79;82.62
73681;BME280;61979;53.536;8.082;2022-09-29T18:41:00;100628.75;;;13.66;83.10
73681;BME280;61979;53.536;8.082;2022-09-29T18:51:00;100634.63;;;13.69;83.11
73681;BME280;61979;53.536;8.082;2022-09-29T19:01:01;100642.75;;;13.83;82.50
73681;BME280;61979;53.536;8.082;2022-09-29T19:11:01;100658.88;;;13.87;81.94
73681;BME280;61979;53.536;8.082;2022-09-29T19:21:07;100666.25;;;13.97;81.67
73681;BME280;61979;53.536;8.082;2022-09-29T19:31:12;100676.28;;;14.05;81.15
73681;BME280;61979;53.536;8.082;2022-09-29T19:41:13;100686.50;;;14.06;80.57
73681;BME280;61979;53.536;8.082;2022-09-29T19:51:15;100695.09;;;14.04;80.65
73681;BME280;61979;53.536;8.082;2022-09-29T20:01:34;100701.22;;;13.69;82.27
73681;BME280;61979;53.536;8.082;2022-09-29T20:11:34;100709.56;;;13.77;81.77
73681;BME280;61979;53.536;8.082;2022-09-29T20:21:36;100728.66;;;13.66;82.09
73681;BME280;61979;53.536;8.082;2022-09-29T20:31:39;100742.28;;;13.34;83.63
73681;BME280;61979;53.536;8.082;2022-09-29T20:41:42;100735.94;;;13.49;82.00
73681;BME280;61979;53.536;8.082;2022-09-29T20:51:43;100735.88;;;13.50;81.93
73681;BME280;61979;53.536;8.082;2022-09-29T21:01:43;100739.31;;;13.17;84.06
73681;BME280;61979;53.536;8.082;2022-09-29T21:11:43;100738.25;;;13.24;83.58
73681;BME280;61979;53.536;8.082;2022-09-29T21:21:46;100742.09;;;13.08;84.03
73681;BME280;61979;53.536;8.082;2022-09-29T21:31:46;100754.06;;;13.06;83.45
73681;BME280;61979;53.536;8.082;2022-09-29T21:41:46;100762.47;;;13.11;82.44
73681;BME280;61979;53.536;8.082;2022-09-29T21:51:47;100785.31;;;12.82;83.03
73681;BME280;61979;53.536;8.082;2022-09-29T22:01:48;100784.28;;;12.52;83.14
73681;BME280;61979;53.536;8.082;2022-09-29T22:11:49;100785.50;;;12.34;82.32
73681;BME280;61979;53.536;8.082;2022-09-29T22:21:50;100801.09;;;12.22;82.47
73681;BME280;61979;53.536;8.082;2022-09-29T22:31:50;100810.47;;;12.22;82.26
73681;BME280;61979;53.536;8.082;2022-09-29T22:41:50;100811.22;;;12.27;82.52
73681;BME280;61979;53.536;8.082;2022-09-29T22:51:51;100817.13;;;12.29;83.71
73681;BME280;61979;53.536;8.082;2022-09-29T23:01:52;100836.97;;;12.18;85.42
73681;BME280;61979;53.536;8.082;2022-09-29T23:11:52;100816.84;;;12.44;84.33
73681;BME280;61979;53.536;8.082;2022-09-29T23:21:54;100819.56;;;12.36;84.79
73681;BME280;61979;53.536;8.082;2022-09-29T23:31:54;100811.03;;;12.36;84.26
73681;BME280;61979;53.536;8.082;2022-09-29T23:41:54;100802.00;;;12.18;85.86
73681;BME280;61979;53.536;8.082;2022-09-29T23:51:55;100799.25;;;12.29;85.08
